sensor_id;sensor_type;location;lat;lon;timestamp;pressure;altitude;pressure_sealevel;temperature;humidity
22743;BME280;11538;48.884;8.696;2023-04-30T00:01:30;99073.19;;;11.32;100.00
22743;BME280;11538;48.884;8.696;2023-04-30T00:03:57;99077.22;;;11.35;100.00
22743;BME280;11538;48.884;8.696;2023-04-30T00:06:24;99073.41;;;11.36;100.00
22743;BME280;11538;48.884;8.696;2023-04-30T00:08:54;99078.75;;;11.41;100.00
22743;BME280;11538;48.884;8.696;2023-04-30T00:11:21;99079.56;;;11.41;100.00
22743;BME280;11538;48.884;8.696;2023-04-30T00:13:48;99077.03;;;11.45;100.00
22743;BME280;11538;48.884;8.696;2023-04-30T00:16:15;99080.34;;;11.42;100.00
22743;BME280;11538;48.884;8.696;2023-04-30T00:18:42;99076.13;;;11.36;100.00
22743;BME280;11538;48.884;8.696;2023-04-30T00:21:09;99078.41;;;11.29;100.00
22743;BME280;11538;48.884;8.696;2023-04-30T00:23:36;99082.81;;;11.24;100.00
22743;BME280;11538;48.884;8.696;2023-04-30T00:26:03;99081.72;;;11.25;100.00
22743;BME280;11538;48.884;8.696;2023-04-30T00:28:30;99092.50;;;11.31;100.00
22743;BME280;11538;48.884;8.696;2023-04-30T00:31:00;99092.91;;;11.38;100.00
22743;BME280;11538;48.884;8.696;2023-04-30T00:33:27;99098.06;;;11.39;100.00
22743;BME280;11538;48.884;8.696;2023-04-30T00:35:54;99103.78;;;11.38;100.00
22743;BME280;11538;48.884;8.696;2023-04-30T00:38:21;99090.09;;;11.29;100.00
22743;BME280;11538;48.884;8.696;2023-04-30T00:40:49;99090.78;;;11.35;100.00
22743;BME280;11538;48.884;8.696;2023-04-30T00:43:17;99081.78;;;11.39;100.00
22743;BME280;11538;48.884;8.696;2023-04-30T00:45:43;99094.44;;;11.44;100.00
22743;BME280;11538;48.884;8.696;2023-04-30T00:48:10;99095.25;;;11.45;100.00
22743;BME280;11538;48.884;8.696;2023-04-30T00:50:40;99089.69;;;11.36;100.00
22743;BME280;11538;48.884;8.696;2023-04-30T00:53:07;99095.63;;;11.38;100.00
22743;BME280;11538;48.884;8.696;2023-04-30T00:55:34;99082.38;;;11.36;100.00
22743;BME280;11538;48.884;8.696;2023-04-30T00:58:06;99082.66;;;11.35;100.00
22743;BME280;11538;48.884;8.696;2023-04-30T01:00:34;99089.50;;;11.32;100.00
22743;BME280;11538;48.884;8.696;2023-04-30T01:03:01;99087.38;;;11.29;100.00
22743;BME280;11538;48.884;8.696;2023-04-30T01:05:28;99089.00;;;11.30;100.00
22743;BME280;11538;48.884;8.696;2023-04-30T01:07:55;99083.25;;;11.32;100.00
22743;BME280;11538;48.884;8.696;2023-04-30T01:10:31;99088.16;;;11.30;100.00
22743;BME280;11538;48.884;8.696;2023-04-30T01:13:11;99082.00;;;11.24;100.00
22743;BME280;11538;48.884;8.696;2023-04-30T01:18:47;99087.09;;;11.11;100.00
22743;BME280;11538;48.884;8.696;2023-04-30T01:21:17;99081.97;;;11.10;100.00
22743;BME280;11538;48.884;8.696;2023-04-30T01:29:48;99068.94;;;11.26;100.00
22743;BME280;11538;48.884;8.696;2023-04-30T01:32:19;99067.53;;;11.29;100.00
22743;BME280;11538;48.884;8.696;2023-04-30T01:34:46;99073.19;;;11.32;100.00
22743;BME280;11538;48.884;8.696;2023-04-30T01:40:42;99066.75;;;11.28;100.00
22743;BME280;11538;48.884;8.696;2023-04-30T01:43:38;99065.13;;;11.27;100.00
22743;BME280;11538;48.884;8.696;2023-04-30T01:46:23;99074.06;;;11.27;100.00
22743;BME280;11538;48.884;8.696;2023-04-30T01:49:31;99066.75;;;11.28;100.00
22743;BME280;11538;48.884;8.696;2023-04-30T01:52:18;99070.03;;;11.25;100.00
22743;BME280;11538;48.884;8.696;2023-04-30T01:55:07;99073.16;;;11.18;100.00
22743;BME280;11538;48.884;8.696;2023-04-30T01:57:41;99073.44;;;11.17;100.00
22743;BME280;11538;48.884;8.696;2023-04-30T02:00:10;99070.78;;;11.11;100.00
22743;BME280;11538;48.884;8.696;2023-04-30T02:02:37;99066.28;;;11.07;100.00
22743;BME280;11538;48.884;8.696;2023-04-30T02:05:05;99062.13;;;11.09;100.00
22743;BME280;11538;48.884;8.696;2023-04-30T02:07:47;99061.53;;;11.12;100.00
22743;BME280;11538;48.884;8.696;2023-04-30T02:10:25;99060.75;;;11.12;100.00
22743;BME280;11538;48.884;8.696;2023-04-30T02:12:52;99062.88;;;11.15;100.00
22743;BME280;11538;48.884;8.696;2023-04-30T02:15:19;99060.38;;;11.19;100.00
22743;BME280;11538;48.884;8.696;2023-04-30T02:17:46;99065.00;;;11.18;100.00
22743;BME280;11538;48.884;8.696;2023-04-30T02:20:13;99063.91;;;11.19;100.00
22743;BME280;11538;48.884;8.696;2023-04-30T02:22:40;99065.69;;;11.24;100.00
22743;BME280;11538;48.884;8.696;2023-04-30T02:25:08;99072.56;;;11.21;100.00
22743;BME280;11538;48.884;8.696;2023-04-30T02:27:35;99069.00;;;11.21;100.00
22743;BME280;11538;48.884;8.696;2023-04-30T02:30:02;99062.47;;;11.22;100.00
22743;BME280;11538;48.884;8.696;2023-04-30T02:32:29;99064.50;;;11.16;100.00
22743;BME280;11538;48.884;8.696;2023-04-30T02:34:57;99063.25;;;11.08;100.00
22743;BME280;11538;48.884;8.696;2023-04-30T02:37:23;99064.06;;;11.09;100.00
22743;BME280;11538;48.884;8.696;2023-04-30T02:39:51;99061.53;;;11.12;100.00
22743;BME280;11538;48.884;8.696;2023-04-30T02:42:19;99070.69;;;11.03;100.00
22743;BME280;11538;48.884;8.696;2023-04-30T02:44:48;99071.84;;;10.96;100.00
22743;BME280;11538;48.884;8.696;2023-04-30T02:47:15;99065.91;;;10.94;100.00
22743;BME280;11538;48.884;8.696;2023-04-30T02:49:42;99062.47;;;10.89;100.00
22743;BME280;11538;48.884;8.696;2023-04-30T02:52:09;99072.59;;;10.83;100.00
22743;BME280;11538;48.884;8.696;2023-04-30T02:54:36;99067.47;;;10.81;100.00
22743;BME280;11538;48.884;8.696;2023-04-30T02:57:03;99062.94;;;10.77;100.00
22743;BME280;11538;48.884;8.696;2023-04-30T02:59:30;99067.84;;;10.75;100.00
22743;BME280;11538;48.884;8.696;2023-04-30T03:01:56;99066.22;;;10.74;100.00
22743;BME280;11538;48.884;8.696;2023-04-30T03:04:23;99060.50;;;10.75;100.00
22743;BME280;11538;48.884;8.696;2023-04-30T03:06:50;99055.81;;;10.81;100.00
22743;BME280;11538;48.884;8.696;2023-04-30T03:09:17;99057.94;;;10.84;100.00
22743;BME280;11538;48.884;8.696;2023-04-30T03:11:49;99063.66;;;10.82;100.00
22743;BME280;11538;48.884;8.696;2023-04-30T03:14:16;99065.50;;;10.87;100.00
22743;BME280;11538;48.884;8.696;2023-04-30T03:16:46;99062.25;;;10.85;100.00
22743;BME280;11538;48.884;8.696;2023-04-30T03:19:14;99062.78;;;10.87;100.00
22743;BME280;11538;48.884;8.696;2023-04-30T03:21:41;99061.25;;;10.81;100.00
22743;BME280;11538;48.884;8.696;2023-04-30T03:24:11;99058.59;;;10.76;100.00
22743;BME280;11538;48.884;8.696;2023-04-30T03:26:38;99063.00;;;10.72;100.00
22743;BME280;11538;48.884;8.696;2023-04-30T03:29:04;99060.28;;;10.72;100.00
22743;BME280;11538;48.884;8.696;2023-04-30T03:31:31;99063.78;;;10.72;100.00
22743;BME280;11538;48.884;8.696;2023-04-30T03:34:01;99061.91;;;10.73;100.00
22743;BME280;11538;48.884;8.696;2023-04-30T03:36:28;99068.44;;;10.72;100.00
22743;BME280;11538;48.884;8.696;2023-04-30T03:38:55;99054.94;;;10.66;100.00
22743;BME280;11538;48.884;8.696;2023-04-30T03:41:22;99055.72;;;10.67;100.00
22743;BME280;11538;48.884;8.696;2023-04-30T03:43:49;99052.50;;;10.65;100.00
22743;BME280;11538;48.884;8.696;2023-04-30T03:46:16;99049.78;;;10.65;100.00
22743;BME280;11538;48.884;8.696;2023-04-30T03:48:43;99056.56;;;10.67;100.00
22743;BME280;11538;48.884;8.696;2023-04-30T03:51:10;99054.34;;;10.70;100.00
22743;BME280;11538;48.884;8.696;2023-04-30T03:53:37;99062.19;;;10.71;100.00
22743;BME280;11538;48.884;8.696;2023-04-30T03:56:05;99061.38;;;10.71;100.00
22743;BME280;11538;48.884;8.696;2023-04-30T03:58:32;99060.38;;;10.66;100.00
22743;BME280;11538;48.884;8.696;2023-04-30T04:00:59;99058.97;;;10.69;100.00
22743;BME280;11538;48.884;8.696;2023-04-30T04:03:26;99057.34;;;10.68;100.00
22743;BME280;11538;48.884;8.696;2023-04-30T04:05:53;99052.50;;;10.65;100.00
22743;BME280;11538;48.884;8.696;2023-04-30T04:08:20;99059.09;;;10.59;100.00
22743;BME280;11538;48.884;8.696;2023-04-30T04:10:47;99059.91;;;10.59;100.00
22743;BME280;11538;48.884;8.696;2023-04-30T04:13:13;99058.66;;;10.51;100.00
22743;BME280;11538;48.884;8.696;2023-04-30T04:15:40;99061.72;;;10.45;100.00
22743;BME280;11538;48.884;8.696;2023-04-30T04:18:07;99060.28;;;10.52;100.00
22743;BME280;11538;48.884;8.696;2023-04-30T04:20:34;99055.94;;;10.51;100.00
22743;BME280;11538;48.884;8.696;2023-04-30T04:23:01;99070.59;;;10.50;100.00
22743;BME280;11538;48.884;8.696;2023-04-30T04:25:28;99065.63;;;10.58;100.00
22743;BME280;11538;48.884;8.696;2023-04-30T04:27:55;99061.00;;;10.58;100.00
22743;BME280;11538;48.884;8.696;2023-04-30T04:30:22;99056.38;;;10.59;100.00
22743;BME280;11538;48.884;8.696;2023-04-30T04:32:49;99057.50;;;10.58;100.00
22743;BME280;11538;48.884;8.696;2023-04-30T04:35:20;99060.22;;;10.58;100.00
22743;BME280;11538;48.884;8.696;2023-04-30T04:37:47;99069.13;;;10.58;100.00
22743;BME280;11538;48.884;8.696;2023-04-30T04:40:14;99074.63;;;10.53;100.00
22743;BME280;11538;48.884;8.696;2023-04-30T04:42:41;99075.13;;;10.55;100.00
22743;BME280;11538;48.884;8.696;2023-04-30T04:45:09;99079.78;;;10.55;100.00
22743;BME280;11538;48.884;8.696;2023-04-30T04:47:36;99082.69;;;10.58;100.00
22743;BME280;11538;48.884;8.696;2023-04-30T04:50:04;99079.34;;;10.66;100.00
22743;BME280;11538;48.884;8.696;2023-04-30T04:52:32;99078.25;;;10.67;100.00
22743;BME280;11538;48.884;8.696;2023-04-30T04:54:59;99083.69;;;10.67;100.00
22743;BME280;11538;48.884;8.696;2023-04-30T04:57:26;99080.06;;;10.72;100.00
22743;BME280;11538;48.884;8.696;2023-04-30T04:59:53;99081.69;;;10.73;100.00
22743;BME280;11538;48.884;8.696;2023-04-30T05:02:21;99083.03;;;10.76;100.00
22743;BME280;11538;48.884;8.696;2023-04-30T05:04:49;99088.53;;;10.71;100.00
22743;BME280;11538;48.884;8.696;2023-04-30T05:07:17;99088.00;;;10.68;100.00
22743;BME280;11538;48.884;8.696;2023-04-30T05:09:45;99083.09;;;10.71;100.00
22743;BME280;11538;48.884;8.696;2023-04-30T05:12:13;99079.50;;;10.75;100.00
22743;BME280;11538;48.884;8.696;2023-04-30T05:14:40;99087.28;;;10.82;100.00
22743;BME280;11538;48.884;8.696;2023-04-30T05:17:08;99080.94;;;10.87;100.00
22743;BME280;11538;48.884;8.696;2023-04-30T05:19:35;99084.69;;;10.91;100.00
22743;BME280;11538;48.884;8.696;2023-04-30T05:22:01;99084.09;;;10.94;100.00
22743;BME280;11538;48.884;8.696;2023-04-30T05:24:28;99082.72;;;10.96;100.00
22743;BME280;11538;48.884;8.696;2023-04-30T05:26:55;99087.03;;;10.97;100.00
22743;BME280;11538;48.884;8.696;2023-04-30T05:29:22;99088.06;;;11.02;100.00
22743;BME280;11538;48.884;8.696;2023-04-30T05:31:49;99081.53;;;11.03;100.00
22743;BME280;11538;48.884;8.696;2023-04-30T05:34:20;99085.56;;;11.05;100.00
22743;BME280;11538;48.884;8.696;2023-04-30T05:36:49;99092.00;;;11.09;100.00
22743;BME280;11538;48.884;8.696;2023-04-30T05:39:16;99088.69;;;11.12;100.00
22743;BME280;11538;48.884;8.696;2023-04-30T05:41:43;99085.09;;;11.17;100.00
22743;BME280;11538;48.884;8.696;2023-04-30T05:44:10;99081.22;;;11.23;100.00
22743;BME280;11538;48.884;8.696;2023-04-30T05:46:37;99089.84;;;11.25;100.00
22743;BME280;11538;48.884;8.696;2023-04-30T05:49:04;99090.59;;;11.31;100.00
22743;BME280;11538;48.884;8.696;2023-04-30T05:51:31;99078.13;;;11.30;100.00
22743;BME280;11538;48.884;8.696;2023-04-30T05:53:58;99084.06;;;11.32;100.00
22743;BME280;11538;48.884;8.696;2023-04-30T05:56:25;99087.28;;;11.34;100.00
22743;BME280;11538;48.884;8.696;2023-04-30T05:58:53;99085.00;;;11.41;100.00
22743;BME280;11538;48.884;8.696;2023-04-30T06:01:21;99097.38;;;11.48;100.00
22743;BME280;11538;48.884;8.696;2023-04-30T06:03:49;99102.13;;;11.56;100.00
22743;BME280;11538;48.884;8.696;2023-04-30T06:06:16;99089.25;;;11.62;100.00
22743;BME280;11538;48.884;8.696;2023-04-30T06:08:43;99085.84;;;11.70;100.00
22743;BME280;11538;48.884;8.696;2023-04-30T06:11:12;99096.84;;;11.79;100.00
22743;BME280;11538;48.884;8.696;2023-04-30T06:13:39;99093.53;;;11.82;100.00
22743;BME280;11538;48.884;8.696;2023-04-30T06:16:07;99093.94;;;11.89;100.00
22743;BME280;11538;48.884;8.696;2023-04-30T06:18:34;99095.16;;;11.97;100.00
22743;BME280;11538;48.884;8.696;2023-04-30T06:21:01;99093.06;;;12.08;100.00
22743;BME280;11538;48.884;8.696;2023-04-30T06:23:28;99090.94;;;12.19;100.00
22743;BME280;11538;48.884;8.696;2023-04-30T06:25:55;99090.53;;;12.25;100.00
22743;BME280;11538;48.884;8.696;2023-04-30T06:28:23;99086.91;;;12.30;100.00
22743;BME280;11538;48.884;8.696;2023-04-30T06:30:50;99092.25;;;12.35;100.00
22743;BME280;11538;48.884;8.696;2023-04-30T06:33:17;99098.19;;;12.37;100.00
22743;BME280;11538;48.884;8.696;2023-04-30T06:35:44;99095.66;;;12.41;100.00
22743;BME280;11538;48.884;8.696;2023-04-30T06:38:12;99087.88;;;12.48;100.00
22743;BME280;11538;48.884;8.696;2023-04-30T06:40:39;99089.88;;;12.56;100.00
22743;BME280;11538;48.884;8.696;2023-04-30T06:43:07;99095.31;;;12.70;100.00
22743;BME280;11538;48.884;8.696;2023-04-30T06:45:34;99095.81;;;12.72;100.00
22743;BME280;11538;48.884;8.696;2023-04-30T06:48:01;99092.09;;;12.68;100.00
22743;BME280;11538;48.884;8.696;2023-04-30T06:50:29;99092.78;;;12.74;100.00
22743;BME280;11538;48.884;8.696;2023-04-30T06:52:56;99100.84;;;12.79;100.00
22743;BME280;11538;48.884;8.696;2023-04-30T06:55:23;99095.78;;;12.86;99.75
22743;BME280;11538;48.884;8.696;2023-04-30T06:57:50;99089.59;;;12.95;99.73
22743;BME280;11538;48.884;8.696;2023-04-30T07:00:17;99101.16;;;13.00;99.05
22743;BME280;11538;48.884;8.696;2023-04-30T07:02:44;99088.03;;;13.02;97.50
22743;BME280;11538;48.884;8.696;2023-04-30T07:05:13;99099.56;;;12.99;98.39
22743;BME280;11538;48.884;8.696;2023-04-30T07:07:41;99095.22;;;12.98;98.27
22743;BME280;11538;48.884;8.696;2023-04-30T07:10:09;99101.97;;;13.01;99.07
22743;BME280;11538;48.884;8.696;2023-04-30T07:12:36;99099.44;;;13.05;97.60
22743;BME280;11538;48.884;8.696;2023-04-30T07:15:04;99102.53;;;13.12;96.98
22743;BME280;11538;48.884;8.696;2023-04-30T07:17:31;99105.13;;;13.17;96.30
22743;BME280;11538;48.884;8.696;2023-04-30T07:19:58;99093.94;;;13.19;94.14
22743;BME280;11538;48.884;8.696;2023-04-30T07:22:26;99102.34;;;13.31;94.06
22743;BME280;11538;48.884;8.696;2023-04-30T07:24:54;99095.28;;;13.44;94.22
22743;BME280;11538;48.884;8.696;2023-04-30T07:27:21;99096.00;;;13.58;93.15
22743;BME280;11538;48.884;8.696;2023-04-30T07:29:47;99095.00;;;13.54;91.86
22743;BME280;11538;48.884;8.696;2023-04-30T07:32:15;99091.16;;;13.55;92.87
22743;BME280;11538;48.884;8.696;2023-04-30T07:34:42;99093.66;;;13.74;91.16
22743;BME280;11538;48.884;8.696;2023-04-30T07:37:09;99092.31;;;13.95;88.01
22743;BME280;11538;48.884;8.696;2023-04-30T07:39:37;99091.94;;;14.19;88.58
22743;BME280;11538;48.884;8.696;2023-04-30T07:42:05;99099.34;;;14.36;86.16
22743;BME280;11538;48.884;8.696;2023-04-30T07:44:32;99085.88;;;14.40;84.62
22743;BME280;11538;48.884;8.696;2023-04-30T07:46:59;99083.63;;;14.51;81.40
22743;BME280;11538;48.884;8.696;2023-04-30T07:49:25;99084.31;;;14.65;81.06
22743;BME280;11538;48.884;8.696;2023-04-30T07:51:52;99093.84;;;14.76;81.01
22743;BME280;11538;48.884;8.696;2023-04-30T07:54:20;99072.78;;;14.68;77.62
22743;BME280;11538;48.884;8.696;2023-04-30T07:56:46;99080.66;;;14.79;78.90
22743;BME280;11538;48.884;8.696;2023-04-30T07:59:14;99081.78;;;14.86;78.50
22743;BME280;11538;48.884;8.696;2023-04-30T08:01:41;99084.84;;;15.02;77.08
22743;BME280;11538;48.884;8.696;2023-04-30T08:04:08;99080.66;;;15.05;76.54
22743;BME280;11538;48.884;8.696;2023-04-30T08:06:35;99088.53;;;15.15;76.14
22743;BME280;11538;48.884;8.696;2023-04-30T08:09:03;99082.75;;;15.26;74.96
22743;BME280;11538;48.884;8.696;2023-04-30T08:11:30;99083.53;;;15.26;73.32
22743;BME280;11538;48.884;8.696;2023-04-30T08:13:57;99071.13;;;15.46;74.26
22743;BME280;11538;48.884;8.696;2023-04-30T08:16:25;99079.47;;;15.59;76.29
22743;BME280;11538;48.884;8.696;2023-04-30T08:18:56;99087.16;;;15.65;76.29
22743;BME280;11538;48.884;8.696;2023-04-30T08:21:23;99093.75;;;15.64;77.09
22743;BME280;11538;48.884;8.696;2023-04-30T08:23:50;99096.34;;;15.61;75.93
22743;BME280;11538;48.884;8.696;2023-04-30T08:26:17;99087.91;;;15.92;71.42
22743;BME280;11538;48.884;8.696;2023-04-30T08:28:44;99086.63;;;16.20;70.11
22743;BME280;11538;48.884;8.696;2023-04-30T08:31:11;99086.03;;;16.44;69.73
22743;BME280;11538;48.884;8.696;2023-04-30T08:33:38;99082.72;;;16.60;69.39
22743;BME280;11538;48.884;8.696;2023-04-30T08:36:06;99098.97;;;16.35;68.92
22743;BME280;11538;48.884;8.696;2023-04-30T08:38:33;99088.63;;;16.41;70.74
22743;BME280;11538;48.884;8.696;2023-04-30T08:41:13;99092.91;;;16.50;69.55
22743;BME280;11538;48.884;8.696;2023-04-30T08:43:42;99095.78;;;16.54;67.36
22743;BME280;11538;48.884;8.696;2023-04-30T08:46:12;99094.47;;;16.81;68.52
22743;BME280;11538;48.884;8.696;2023-04-30T08:48:41;99082.59;;;16.77;65.88
22743;BME280;11538;48.884;8.696;2023-04-30T08:51:08;99085.78;;;16.58;68.48
22743;BME280;11538;48.884;8.696;2023-04-30T08:53:36;99081.59;;;16.31;67.79
22743;BME280;11538;48.884;8.696;2023-04-30T08:56:09;99085.56;;;16.12;68.49
22743;BME280;11538;48.884;8.696;2023-04-30T08:58:36;99080.50;;;15.93;68.98
22743;BME280;11538;48.884;8.696;2023-04-30T09:01:07;99072.16;;;15.81;69.68
22743;BME280;11538;48.884;8.696;2023-04-30T09:03:36;99083.75;;;15.69;70.44
22743;BME280;11538;48.884;8.696;2023-04-30T09:06:03;99071.88;;;15.64;71.22
22743;BME280;11538;48.884;8.696;2023-04-30T09:08:48;99073.78;;;15.73;72.20
22743;BME280;11538;48.884;8.696;2023-04-30T09:11:29;99077.13;;;15.78;71.05
22743;BME280;11538;48.884;8.696;2023-04-30T09:13:59;99073.59;;;15.78;68.03
22743;BME280;11538;48.884;8.696;2023-04-30T09:16:30;99071.22;;;15.68;63.68
22743;BME280;11538;48.884;8.696;2023-04-30T09:19:27;99075.53;;;15.77;69.75
22743;BME280;11538;48.884;8.696;2023-04-30T09:21:54;99072.94;;;15.81;67.64
22743;BME280;11538;48.884;8.696;2023-04-30T09:24:22;99063.94;;;15.81;65.13
22743;BME280;11538;48.884;8.696;2023-04-30T09:26:50;99065.19;;;15.83;63.12
22743;BME280;11538;48.884;8.696;2023-04-30T09:29:17;99067.47;;;15.81;60.00
22743;BME280;11538;48.884;8.696;2023-04-30T09:31:45;99080.97;;;15.86;63.23
22743;BME280;11538;48.884;8.696;2023-04-30T09:34:13;99075.38;;;15.91;57.10
22743;BME280;11538;48.884;8.696;2023-04-30T09:36:54;99076.97;;;15.92;57.19
22743;BME280;11538;48.884;8.696;2023-04-30T09:39:21;99078.22;;;16.04;63.30
22743;BME280;11538;48.884;8.696;2023-04-30T09:41:50;99083.81;;;16.07;57.15
22743;BME280;11538;48.884;8.696;2023-04-30T09:44:31;99079.53;;;15.98;56.54
22743;BME280;11538;48.884;8.696;2023-04-30T09:47:01;99073.41;;;16.01;58.30
22743;BME280;11538;48.884;8.696;2023-04-30T09:49:29;99085.41;;;16.08;59.96
22743;BME280;11538;48.884;8.696;2023-04-30T09:52:00;99075.03;;;16.23;59.63
22743;BME280;11538;48.884;8.696;2023-04-30T09:54:31;99077.72;;;16.32;57.30
22743;BME280;11538;48.884;8.696;2023-04-30T09:57:00;99076.53;;;16.42;65.84
22743;BME280;11538;48.884;8.696;2023-04-30T09:59:33;99078.00;;;16.39;57.19
22743;BME280;11538;48.884;8.696;2023-04-30T10:02:05;99076.41;;;16.38;54.85
22743;BME280;11538;48.884;8.696;2023-04-30T10:04:37;99075.59;;;16.37;56.03
22743;BME280;11538;48.884;8.696;2023-04-30T10:07:09;99076.69;;;16.45;55.47
22743;BME280;11538;48.884;8.696;2023-04-30T10:09:53;99071.59;;;16.56;57.76
22743;BME280;11538;48.884;8.696;2023-04-30T10:12:38;99073.34;;;16.61;56.46
22743;BME280;11538;48.884;8.696;2023-04-30T10:15:27;99065.63;;;16.63;58.55
22743;BME280;11538;48.884;8.696;2023-04-30T10:18:33;99062.41;;;16.61;56.93
22743;BME280;11538;48.884;8.696;2023-04-30T10:21:07;99071.59;;;16.56;58.38
22743;BME280;11538;48.884;8.696;2023-04-30T10:23:38;99075.16;;;16.57;59.95
22743;BME280;11538;48.884;8.696;2023-04-30T10:26:07;99057.88;;;16.65;61.45
22743;BME280;11538;48.884;8.696;2023-04-30T10:28:35;99067.38;;;16.67;57.78
22743;BME280;11538;48.884;8.696;2023-04-30T10:31:04;99066.06;;;16.65;56.34
22743;BME280;11538;48.884;8.696;2023-04-30T10:37:00;99065.63;;;16.63;57.83
22743;BME280;11538;48.884;8.696;2023-04-30T10:39:29;99057.19;;;16.68;56.40
22743;BME280;11538;48.884;8.696;2023-04-30T10:42:09;99053.72;;;16.80;55.35
22743;BME280;11538;48.884;8.696;2023-04-30T10:44:38;99057.59;;;17.00;55.67
22743;BME280;11538;48.884;8.696;2023-04-30T10:47:06;99047.81;;;17.12;54.16
22743;BME280;11538;48.884;8.696;2023-04-30T10:49:34;99043.56;;;17.23;55.31
22743;BME280;11538;48.884;8.696;2023-04-30T10:52:03;99035.44;;;17.27;54.01
22743;BME280;11538;48.884;8.696;2023-04-30T10:54:34;99037.16;;;17.31;56.33
22743;BME280;11538;48.884;8.696;2023-04-30T10:57:12;99040.28;;;17.42;62.19
22743;BME280;11538;48.884;8.696;2023-04-30T11:02:16;99036.72;;;17.29;54.19
22743;BME280;11538;48.884;8.696;2023-04-30T11:05:11;99039.91;;;17.31;54.96
22743;BME280;11538;48.884;8.696;2023-04-30T11:07:51;99034.53;;;17.35;54.48
22743;BME280;11538;48.884;8.696;2023-04-30T11:10:25;99027.16;;;17.48;54.44
22743;BME280;11538;48.884;8.696;2023-04-30T11:12:54;99016.53;;;17.71;52.57
22743;BME280;11538;48.884;8.696;2023-04-30T11:15:33;99021.50;;;18.03;54.19
22743;BME280;11538;48.884;8.696;2023-04-30T11:18:01;99022.50;;;18.23;52.44
22743;BME280;11538;48.884;8.696;2023-04-30T11:20:29;99021.00;;;18.25;52.42
22743;BME280;11538;48.884;8.696;2023-04-30T11:23:16;99026.16;;;18.27;51.16
22743;BME280;11538;48.884;8.696;2023-04-30T11:25:55;99026.38;;;18.34;51.44
22743;BME280;11538;48.884;8.696;2023-04-30T11:28:27;99010.16;;;18.29;49.57
22743;BME280;11538;48.884;8.696;2023-04-30T11:30:57;99002.94;;;18.12;49.60
22743;BME280;11538;48.884;8.696;2023-04-30T11:33:29;98988.09;;;17.88;48.79
22743;BME280;11538;48.884;8.696;2023-04-30T11:36:01;99007.97;;;17.85;51.16
22743;BME280;11538;48.884;8.696;2023-04-30T11:38:35;99004.00;;;17.95;50.22
22743;BME280;11538;48.884;8.696;2023-04-30T11:41:03;99009.13;;;17.84;47.38
22743;BME280;11538;48.884;8.696;2023-04-30T11:43:32;99018.50;;;17.71;51.16
22743;BME280;11538;48.884;8.696;2023-04-30T11:46:08;99015.16;;;17.65;50.82
22743;BME280;11538;48.884;8.696;2023-04-30T11:48:44;99004.19;;;17.65;49.51
22743;BME280;11538;48.884;8.696;2023-04-30T11:51:22;99007.97;;;17.73;49.62
22743;BME280;11538;48.884;8.696;2023-04-30T11:53:51;98999.84;;;17.89;48.49
22743;BME280;11538;48.884;8.696;2023-04-30T11:56:20;98991.53;;;18.10;47.61
22743;BME280;11538;48.884;8.696;2023-04-30T11:58:49;98997.44;;;18.24;47.08
22743;BME280;11538;48.884;8.696;2023-04-30T12:01:17;98998.16;;;18.09;45.28
22743;BME280;11538;48.884;8.696;2023-04-30T12:03:48;98985.47;;;17.92;45.89
22743;BME280;11538;48.884;8.696;2023-04-30T12:06:28;98991.50;;;17.85;46.39
22743;BME280;11538;48.884;8.696;2023-04-30T12:08:58;98994.94;;;17.82;52.22
22743;BME280;11538;48.884;8.696;2023-04-30T12:11:37;98983.28;;;17.73;48.84
22743;BME280;11538;48.884;8.696;2023-04-30T12:14:09;99000.44;;;17.69;50.12
22743;BME280;11538;48.884;8.696;2023-04-30T12:16:51;98990.69;;;17.72;47.95
22743;BME280;11538;48.884;8.696;2023-04-30T12:19:21;99006.38;;;17.72;49.07
22743;BME280;11538;48.884;8.696;2023-04-30T12:21:50;98999.63;;;17.57;48.74
22743;BME280;11538;48.884;8.696;2023-04-30T12:24:20;98991.28;;;17.53;51.22
22743;BME280;11538;48.884;8.696;2023-04-30T12:26:52;98996.88;;;17.57;50.03
22743;BME280;11538;48.884;8.696;2023-04-30T12:29:21;98997.47;;;17.62;50.93
22743;BME280;11538;48.884;8.696;2023-04-30T12:31:48;98989.78;;;17.56;47.50
22743;BME280;11538;48.884;8.696;2023-04-30T12:34:17;98978.94;;;17.47;48.59
22743;BME280;11538;48.884;8.696;2023-04-30T12:36:44;98993.34;;;17.56;48.99
22743;BME280;11538;48.884;8.696;2023-04-30T12:39:13;98981.47;;;17.64;49.16
22743;BME280;11538;48.884;8.696;2023-04-30T12:41:46;98983.97;;;17.69;48.65
22743;BME280;11538;48.884;8.696;2023-04-30T12:46:45;98985.34;;;17.76;47.78
22743;BME280;11538;48.884;8.696;2023-04-30T12:49:28;98985.22;;;17.84;49.71
22743;BME280;11538;48.884;8.696;2023-04-30T12:52:10;98983.63;;;17.83;47.42
22743;BME280;11538;48.884;8.696;2023-04-30T12:54:38;98976.97;;;17.84;48.81
22743;BME280;11538;48.884;8.696;2023-04-30T12:57:11;98967.16;;;17.83;48.96
22743;BME280;11538;48.884;8.696;2023-04-30T12:59:55;98958.81;;;17.80;48.26
22743;BME280;11538;48.884;8.696;2023-04-30T13:02:25;98964.66;;;17.91;48.77
22743;BME280;11538;48.884;8.696;2023-04-30T13:04:53;98969.56;;;17.85;48.51
22743;BME280;11538;48.884;8.696;2023-04-30T13:07:20;98959.06;;;17.75;47.57
22743;BME280;11538;48.884;8.696;2023-04-30T13:09:47;98959.63;;;17.68;48.64
22743;BME280;11538;48.884;8.696;2023-04-30T13:12:14;98963.16;;;17.68;48.83
22743;BME280;11538;48.884;8.696;2023-04-30T13:14:41;98964.31;;;17.67;49.63
22743;BME280;11538;48.884;8.696;2023-04-30T13:17:08;98963.50;;;17.67;50.77
22743;BME280;11538;48.884;8.696;2023-04-30T13:19:37;98956.09;;;17.67;47.89
22743;BME280;11538;48.884;8.696;2023-04-30T13:22:04;98956.09;;;17.67;48.91
22743;BME280;11538;48.884;8.696;2023-04-30T13:24:31;98956.41;;;17.66;48.96
22743;BME280;11538;48.884;8.696;2023-04-30T13:26:58;98948.78;;;17.72;49.80
22743;BME280;11538;48.884;8.696;2023-04-30T13:29:25;98970.47;;;17.77;50.76